Green Lofoten — P3MG8 — position and weather

sailwx.info

Track history (hours):
 
Tides and Currents Weather Stations Pressure Air Temp Water Temp Dewpoint Dewpoint Depression Visibility Wind Speed Wind Dir Waves Ship Positions

Green Lofoten

Last reported at 2017-Mar-30 10:30 UTC. Time now 2017-Mar-30 10:48 UTC.
Position N 59°52' E 030°13'.

Length 98 m; draft 6.3 m.

Type: Ship. MMSI: 212857000.

Date/timePositionNaut miles runAvg speedWind from/ knotsBaromVisibWave heightAir tempDewpointWater temp
2017-Mar-30 10:30N 59°52' E 030°13'0 0.0
2017-Mar-30 09:33N 59°52' E 030°13'0 0.0
2017-Mar-30 08:33N 59°52' E 030°13'0 0.0
2017-Mar-30 07:33N 59°52' E 030°13'0 0.0
2017-Mar-30 06:33N 59°52' E 030°13'0 0.0
2017-Mar-30 05:33N 59°52' E 030°13'0 0.0
2017-Mar-30 04:33N 59°52' E 030°13'0 0.0
2017-Mar-30 03:33N 59°52' E 030°13'0 0.0
2017-Mar-30 02:33N 59°52' E 030°13'0 0.0
2017-Mar-30 01:33N 59°52' E 030°13'0 0.0
2017-Mar-30 00:33N 59°52' E 030°13'0 0.0
2017-Mar-29 23:33N 59°52' E 030°13'0 0.0
2017-Mar-29 22:33N 59°52' E 030°13'0 0.0
2017-Mar-29 21:33N 59°52' E 030°13'0 0.0
2017-Mar-29 20:33N 59°52' E 030°13'0 0.0
2017-Mar-29 19:33N 59°52' E 030°13'0 0.0
2017-Mar-29 18:30N 59°52' E 030°13'0 0.2
2017-Mar-29 17:33N 59°52' E 030°13'7 7.2
2017-Mar-29 16:33N 59°55' E 029°60'1110.9
2017-Mar-29 15:33N 59°60' E 029°40'16 3.1
2017-Mar-29 10:27N 60°02' E 029°08'8 8.3
2017-Mar-29 09:33N 60°02' E 028°53'1110.9
2017-Mar-29 08:33N 60°03' E 028°31'10 9.5
2017-Mar-29 07:33N 60°07' E 028°15'1510.7
2017-Mar-29 06:11N 60°11' E 027°46'812.3
2017-Mar-29 05:33N 60°07' E 027°33'1312.1
2017-Mar-29 04:26N 59°60' E 027°10'1111.8
2017-Mar-29 03:31N 59°59' E 026°48'1212.4
2017-Mar-29 02:30N 59°57' E 026°23'7912.9
2017-Mar-28 20:24N 59°38' E 023°52'1113.5
2017-Mar-28 19:33N 59°35' E 023°31'28912.4
2017-Mar-27 20:16N 56°11' E 017°04'912.7
2017-Mar-27 19:33N 56°05' E 016°51'1312.7
2017-Mar-27 18:33N 55°58' E 016°33'1312.7
2017-Mar-27 17:34N 55°52' E 016°13'1312.7
2017-Mar-27 16:33N 55°46' E 015°53'1312.8
2017-Mar-27 15:33N 55°40' E 015°33'1312.8
2017-Mar-27 14:34N 55°34' E 015°13'1313.2
2017-Mar-27 13:33N 55°28' E 014°52'1312.8
2017-Mar-27 12:33N 55°21' E 014°33'1312.8
2017-Mar-27 11:33N 55°11' E 014°20'1212.0
2017-Mar-27 10:34N 55°11' E 013°59'1312.5
2017-Mar-27 09:32N 55°12' E 013°37'1212.7
2017-Mar-27 08:33N 55°14' E 013°15'1312.6
2017-Mar-27 07:33N 55°15' E 012°53'1110.7
2017-Mar-27 06:34N 55°21' E 012°38'1211.9
2017-Mar-27 05:34N 55°33' E 012°42'1111.2
2017-Mar-27 04:34N 55°44' E 012°41'1211.9
2017-Mar-27 03:34N 55°56' E 012°39'1110.6
2017-Mar-27 02:34N 56°06' E 012°34'1312.9
2017-Mar-27 01:34N 56°13' E 012°14'1211.8
2017-Mar-27 00:33N 56°22' E 012°00'1312.4
2017-Mar-26 23:31N 56°35' E 011°55'1312.6
2017-Mar-26 22:29N 56°47' E 011°50'1212.4
2017-Mar-26 21:30N 56°59' E 011°42'1212.4
2017-Mar-26 20:32N 57°10' E 011°35'1212.7
2017-Mar-26 19:33N 57°22' E 011°28'1212.3
2017-Mar-26 18:34N 57°32' E 011°15'1312.9
2017-Mar-26 17:31N 57°41' E 010°56'1212.7
2017-Mar-26 16:33N 57°48' E 010°38'1313.4
2017-Mar-26 15:33N 57°48' E 010°12'1312.9
2017-Mar-26 14:33N 57°49' E 009°48'1712.5
2017-Mar-26 13:13N 57°50' E 009°17'3412.6
2017-Mar-26 10:33N 57°52' E 008°13'1212.2
2017-Mar-26 09:33N 57°53' E 007°51'1212.4
2017-Mar-26 08:33N 57°54' E 007°27'1313.4
2017-Mar-26 07:33N 57°56' E 007°03'1312.7
2017-Mar-26 06:33N 58°00' E 006°40'1212.2
2017-Mar-26 05:33N 58°06' E 006°20'1312.4
2017-Mar-26 04:33N 58°13' E 006°00'1312.7
2017-Mar-26 03:33N 58°21' E 005°41'1313.2
2017-Mar-26 02:33N 58°28' E 005°20'1313.0
2017-Mar-26 01:33N 58°36' E 005°00'1312.6
2017-Mar-26 00:33N 58°43' E 004°41'  
Track history (hours):
 
Tides and Currents Weather Stations Pressure Air Temp Water Temp Dewpoint Dewpoint Depression Visibility Wind Speed Wind Dir Waves Ship Positions

Green Lofoten

Last reported at 2017-Mar-30 10:30 UTC. Time now 2017-Mar-30 10:48 UTC.
Position N 59°52' E 030°13'.

Length 98 m; draft 6.3 m.

Type: Ship. MMSI: 212857000.

Date/timePositionNaut miles runAvg speedWind from/ knotsBaromVisibWave heightAir tempDewpointWater temp
2017-Mar-30 10:30N 59°52' E 030°13'0 0.0
2017-Mar-30 09:33N 59°52' E 030°13'0 0.0
2017-Mar-30 08:33N 59°52' E 030°13'0 0.0
2017-Mar-30 07:33N 59°52' E 030°13'0 0.0
2017-Mar-30 06:33N 59°52' E 030°13'0 0.0
2017-Mar-30 05:33N 59°52' E 030°13'0 0.0
2017-Mar-30 04:33N 59°52' E 030°13'0 0.0
2017-Mar-30 03:33N 59°52' E 030°13'0 0.0
2017-Mar-30 02:33N 59°52' E 030°13'0 0.0
2017-Mar-30 01:33N 59°52' E 030°13'0 0.0
2017-Mar-30 00:33N 59°52' E 030°13'0 0.0
2017-Mar-29 23:33N 59°52' E 030°13'0 0.0
2017-Mar-29 22:33N 59°52' E 030°13'0 0.0
2017-Mar-29 21:33N 59°52' E 030°13'0 0.0
2017-Mar-29 20:33N 59°52' E 030°13'0 0.0
2017-Mar-29 19:33N 59°52' E 030°13'0 0.0
2017-Mar-29 18:30N 59°52' E 030°13'0 0.2
2017-Mar-29 17:33N 59°52' E 030°13'7 7.2
2017-Mar-29 16:33N 59°55' E 029°60'1110.9
2017-Mar-29 15:33N 59°60' E 029°40'16 3.1
2017-Mar-29 10:27N 60°02' E 029°08'8 8.3
2017-Mar-29 09:33N 60°02' E 028°53'1110.9
2017-Mar-29 08:33N 60°03' E 028°31'10 9.5
2017-Mar-29 07:33N 60°07' E 028°15'1510.7
2017-Mar-29 06:11N 60°11' E 027°46'812.3
2017-Mar-29 05:33N 60°07' E 027°33'1312.1
2017-Mar-29 04:26N 59°60' E 027°10'1111.8
2017-Mar-29 03:31N 59°59' E 026°48'1212.4
2017-Mar-29 02:30N 59°57' E 026°23'7912.9
2017-Mar-28 20:24N 59°38' E 023°52'1113.5
2017-Mar-28 19:33N 59°35' E 023°31'28912.4
2017-Mar-27 20:16N 56°11' E 017°04'912.7
2017-Mar-27 19:33N 56°05' E 016°51'1312.7
2017-Mar-27 18:33N 55°58' E 016°33'1312.7
2017-Mar-27 17:34N 55°52' E 016°13'1312.7
2017-Mar-27 16:33N 55°46' E 015°53'1312.8
2017-Mar-27 15:33N 55°40' E 015°33'1312.8
2017-Mar-27 14:34N 55°34' E 015°13'1313.2
2017-Mar-27 13:33N 55°28' E 014°52'1312.8
2017-Mar-27 12:33N 55°21' E 014°33'1312.8
2017-Mar-27 11:33N 55°11' E 014°20'1212.0
2017-Mar-27 10:34N 55°11' E 013°59'1312.5
2017-Mar-27 09:32N 55°12' E 013°37'1212.7
2017-Mar-27 08:33N 55°14' E 013°15'1312.6
2017-Mar-27 07:33N 55°15' E 012°53'1110.7
2017-Mar-27 06:34N 55°21' E 012°38'1211.9
2017-Mar-27 05:34N 55°33' E 012°42'1111.2
2017-Mar-27 04:34N 55°44' E 012°41'1211.9
2017-Mar-27 03:34N 55°56' E 012°39'1110.6
2017-Mar-27 02:34N 56°06' E 012°34'1312.9
2017-Mar-27 01:34N 56°13' E 012°14'1211.8
2017-Mar-27 00:33N 56°22' E 012°00'1312.4
2017-Mar-26 23:31N 56°35' E 011°55'1312.6
2017-Mar-26 22:29N 56°47' E 011°50'1212.4
2017-Mar-26 21:30N 56°59' E 011°42'1212.4
2017-Mar-26 20:32N 57°10' E 011°35'1212.7
2017-Mar-26 19:33N 57°22' E 011°28'1212.3
2017-Mar-26 18:34N 57°32' E 011°15'1312.9
2017-Mar-26 17:31N 57°41' E 010°56'1212.7
2017-Mar-26 16:33N 57°48' E 010°38'1313.4
2017-Mar-26 15:33N 57°48' E 010°12'1312.9
2017-Mar-26 14:33N 57°49' E 009°48'1712.5
2017-Mar-26 13:13N 57°50' E 009°17'3412.6
2017-Mar-26 10:33N 57°52' E 008°13'1212.2
2017-Mar-26 09:33N 57°53' E 007°51'1212.4
2017-Mar-26 08:33N 57°54' E 007°27'1313.4
2017-Mar-26 07:33N 57°56' E 007°03'1312.7
2017-Mar-26 06:33N 58°00' E 006°40'1212.2
2017-Mar-26 05:33N 58°06' E 006°20'1312.4
2017-Mar-26 04:33N 58°13' E 006°00'1312.7
2017-Mar-26 03:33N 58°21' E 005°41'1313.2
2017-Mar-26 02:33N 58°28' E 005°20'1313.0
2017-Mar-26 01:33N 58°36' E 005°00'1312.6
2017-Mar-26 00:33N 58°43' E 004°41'  

Dump ship's entire track history